createdAt,value
2017-11-13T00:01:48.975Z,39.00
2017-11-13T00:06:50.672Z,53.00
2017-11-13T00:11:52.384Z,40.47
2017-11-13T00:16:54.066Z,50.07
2017-11-13T00:21:55.775Z,34.00
2017-11-13T00:26:57.476Z,41.70
2017-11-13T00:31:59.190Z,29.37
2017-11-13T00:37:00.866Z,39.37
2017-11-13T00:42:02.541Z,27.10
2017-11-13T00:47:04.268Z,22.80
2017-11-13T00:52:05.953Z,22.70
2017-11-13T00:57:07.636Z,21.23
2017-11-13T01:02:09.332Z,22.23
2017-11-13T01:07:11.802Z,22.47
2017-11-13T01:12:14.208Z,23.70
2017-11-13T01:17:15.896Z,23.97
2017-11-13T01:22:17.593Z,29.80
2017-11-13T01:27:19.288Z,23.07
2017-11-13T01:32:20.975Z,28.93
2017-11-13T01:37:22.671Z,22.50
2017-11-13T01:42:24.353Z,22.73
2017-11-13T01:47:26.060Z,19.60
2017-11-13T01:52:27.830Z,22.93
2017-11-13T01:57:30.280Z,14.60
2017-11-13T02:02:32.050Z,12.20
2017-11-13T02:07:34.590Z,14.67
2017-11-13T02:12:36.338Z,10.00
2017-11-13T02:17:38.110Z,11.43
2017-11-13T02:22:39.928Z,14.80
2017-11-13T02:27:41.695Z,7.70
2017-11-13T02:32:43.442Z,7.60
2017-11-13T02:37:45.188Z,13.57
2017-11-13T02:42:46.948Z,7.80
2017-11-13T02:47:49.431Z,6.17
2017-11-13T02:52:51.172Z,8.50
2017-11-13T02:57:52.966Z,12.67
2017-11-13T03:02:55.371Z,12.30
2017-11-13T03:07:57.848Z,9.27
2017-11-13T03:12:59.556Z,9.23
2017-11-13T03:18:01.395Z,14.50
2017-11-13T03:23:03.125Z,7.47
2017-11-13T03:28:04.811Z,9.20
2017-11-13T03:33:06.491Z,4.30
2017-11-13T03:38:08.964Z,10.60
2017-11-13T03:43:10.651Z,5.33
2017-11-13T03:48:12.323Z,16.90
2017-11-13T03:53:14.016Z,7.40
2017-11-13T03:58:15.719Z,3.43
2017-11-13T04:03:17.395Z,5.53
2017-11-13T04:08:19.883Z,11.40
2017-11-13T04:13:26.900Z,10.43
2017-11-13T04:18:28.675Z,11.13
2017-11-13T04:23:30.407Z,4.23
2017-11-13T04:28:32.096Z,16.33
2017-11-13T04:33:33.796Z,23.47
2017-11-13T04:38:40.581Z,8.63
2017-11-13T04:43:42.426Z,14.17
2017-11-13T04:48:44.148Z,11.20
2017-11-13T04:53:46.567Z,14.90
2017-11-13T04:58:49.045Z,5.40
2017-11-13T05:03:50.745Z,11.80
2017-11-13T05:08:52.480Z,9.30
2017-11-13T05:13:54.902Z,12.60
2017-11-13T05:18:56.681Z,22.80
2017-11-13T05:23:58.396Z,14.30
2017-11-13T05:29:00.869Z,22.80
2017-11-13T05:34:02.586Z,21.37
2017-11-13T05:39:04.412Z,15.83
2017-11-13T05:44:06.822Z,17.63
2017-11-13T05:49:09.249Z,16.83
2017-11-13T05:54:10.924Z,22.93
2017-11-13T05:59:12.613Z,9.73
2017-11-13T06:04:14.288Z,16.27
2017-11-13T06:09:15.997Z,18.90
2017-11-13T06:14:17.698Z,14.90
2017-11-13T06:19:19.382Z,15.80
2017-11-13T06:24:21.072Z,12.53
2017-11-13T06:29:22.764Z,18.10
2017-11-13T06:34:25.183Z,20.60
2017-11-13T06:39:27.235Z,17.83
2017-11-13T06:44:30.315Z,14.40
2017-11-13T06:49:32.534Z,21.70
2017-11-13T06:54:34.285Z,14.40
2017-11-13T06:59:36.099Z,20.03
2017-11-13T07:04:37.819Z,11.23
2017-11-13T07:09:39.515Z,38.43
2017-11-13T07:14:41.776Z,20.30
2017-11-13T07:19:43.503Z,20.70
2017-11-13T07:24:45.193Z,11.40
2017-11-13T07:29:47.658Z,15.03
2017-11-13T07:34:49.347Z,14.23
2017-11-13T07:39:51.105Z,13.30
2017-11-13T07:44:53.563Z,24.03
2017-11-13T07:49:55.227Z,14.90
2017-11-13T07:54:57.100Z,18.47
2017-11-13T07:59:58.775Z,30.33
2017-11-13T08:05:00.483Z,16.60
2017-11-13T08:10:02.213Z,21.60
2017-11-13T08:15:07.122Z,19.87
2017-11-13T08:20:09.872Z,21.13
2017-11-13T08:25:15.787Z,21.77
2017-11-13T08:30:24.103Z,17.17
2017-11-13T08:35:27.318Z,18.80
2017-11-13T08:40:29.321Z,18.90
2017-11-13T08:45:34.058Z,11.70
2017-11-13T08:50:36.584Z,14.23
2017-11-13T08:55:42.004Z,13.83
2017-11-13T09:00:44.661Z,11.77
2017-11-13T09:05:51.990Z,14.63
2017-11-13T09:10:53.847Z,16.17
2017-11-13T09:15:57.055Z,6.40
2017-11-13T09:20:59.133Z,12.63
2017-11-13T09:26:00.925Z,6.90
2017-11-13T09:31:02.627Z,9.37
2017-11-13T09:36:04.383Z,9.50
2017-11-13T09:41:06.824Z,10.90
2017-11-13T09:46:09.256Z,7.47
2017-11-13T09:51:11.683Z,7.23
2017-11-13T09:56:13.894Z,8.17
2017-11-13T10:01:17.154Z,13.60
2017-11-13T10:06:24.588Z,6.67
2017-11-13T10:11:27.261Z,6.73
2017-11-13T10:16:34.083Z,7.90
2017-11-13T10:21:39.994Z,4.10
2017-11-13T10:26:41.915Z,7.30
2017-11-13T10:31:44.414Z,22.97
2017-11-13T10:36:50.492Z,4.50
2017-11-13T10:41:52.196Z,7.90
2017-11-13T10:46:53.927Z,4.50
2017-11-13T10:51:56.369Z,2.20
2017-11-13T10:56:58.139Z,7.37
2017-11-13T11:01:59.884Z,4.93
2017-11-13T11:07:01.639Z,20.03
2017-11-13T11:12:04.129Z,4.43
2017-11-13T11:23:00.715Z,10.13
2017-11-13T11:28:07.336Z,5.33
2017-11-13T11:33:14.045Z,4.93
2017-11-13T11:38:19.090Z,2.57
2017-11-13T11:43:25.015Z,4.93
2017-11-13T11:54:09.648Z,9.23
2017-11-13T11:59:11.396Z,11.17
2017-11-13T12:04:13.231Z,2.40
2017-11-13T12:09:14.945Z,5.67
2017-11-13T12:14:16.626Z,2.00
2017-11-13T12:19:18.346Z,1.93
2017-11-13T12:24:20.059Z,4.57
2017-11-13T12:29:21.736Z,1.00
2017-11-13T12:34:23.434Z,2.13
2017-11-13T12:39:25.117Z,3.27
2017-11-13T12:44:26.815Z,15.97
2017-11-13T12:49:28.508Z,5.00
2017-11-13T12:54:30.232Z,3.03
2017-11-13T12:59:31.969Z,3.53
2017-11-13T13:04:34.504Z,4.13
2017-11-13T13:09:36.248Z,8.03
2017-11-13T13:14:38.498Z,3.27
2017-11-13T13:19:40.512Z,6.57
2017-11-13T13:24:42.194Z,2.90
2017-11-13T13:29:44.618Z,9.67
2017-11-13T13:34:46.387Z,5.73
2017-11-13T13:39:48.897Z,4.33
2017-11-13T13:44:55.959Z,5.20
2017-11-13T13:50:00.361Z,7.00
2017-11-13T13:55:02.958Z,3.83
2017-11-13T14:00:06.238Z,4.30
2017-11-13T14:05:13.147Z,6.80
2017-11-13T14:10:16.846Z,2.50
2017-11-13T14:15:23.389Z,3.60
2017-11-13T14:20:25.988Z,7.10
2017-11-13T14:25:28.551Z,15.17
2017-11-13T14:30:34.783Z,4.00
2017-11-13T14:35:37.337Z,5.23
2017-11-13T14:40:39.705Z,7.73
2017-11-13T14:45:43.166Z,4.17
2017-11-13T14:50:46.973Z,6.33
2017-11-13T14:55:49.355Z,16.77
2017-11-13T15:00:51.766Z,21.57
2017-11-13T15:05:53.477Z,6.90
2017-11-13T15:10:55.161Z,8.40
2017-11-13T15:15:56.907Z,12.17
2017-11-13T15:20:58.609Z,11.23
2017-11-13T15:26:01.007Z,6.10
2017-11-13T15:31:02.743Z,7.83
2017-11-13T15:36:04.417Z,15.13
2017-11-13T15:41:06.118Z,11.97
2017-11-13T15:46:07.799Z,18.60
2017-11-13T15:51:09.507Z,31.60
2017-11-13T15:56:11.239Z,12.90
2017-11-13T16:01:12.920Z,16.70
2017-11-13T16:06:15.368Z,13.90
2017-11-13T16:11:17.047Z,18.97
2017-11-13T16:16:18.729Z,34.37
2017-11-13T16:21:20.453Z,16.40
2017-11-13T16:26:22.156Z,7.90
2017-11-13T16:31:23.870Z,15.83
2017-11-13T16:36:25.594Z,17.53
2017-11-13T16:41:27.322Z,25.67
2017-11-13T16:46:29.765Z,14.90
2017-11-13T16:51:31.498Z,28.53
2017-11-13T16:56:33.183Z,8.83
2017-11-13T17:01:34.872Z,28.00
2017-11-13T17:06:36.548Z,25.03
2017-11-13T17:11:38.233Z,30.20
2017-11-13T17:16:41.891Z,22.83
2017-11-13T17:21:48.269Z,24.03
2017-11-13T17:26:53.278Z,21.73
2017-11-13T17:31:56.345Z,30.53
2017-11-13T17:36:58.049Z,27.50
2017-11-13T17:42:00.463Z,30.90
2017-11-13T17:47:02.879Z,15.63
2017-11-13T17:52:05.011Z,21.37
2017-11-13T17:57:07.639Z,21.10
2017-11-13T18:02:09.956Z,19.13
2017-11-13T18:07:13.290Z,22.93
2017-11-13T18:12:16.451Z,13.27
2017-11-13T18:17:18.125Z,23.17
2017-11-13T18:22:20.536Z,22.93
2017-11-13T18:27:22.945Z,21.03
2017-11-13T18:32:24.632Z,14.80
2017-11-13T18:37:26.312Z,19.10
2017-11-13T18:42:28.449Z,20.97
2017-11-13T18:47:30.432Z,29.93
2017-11-13T18:52:32.607Z,36.23
2017-11-13T18:57:34.766Z,26.20
2017-11-13T19:02:36.510Z,26.67
2017-11-13T19:07:38.295Z,29.67
2017-11-13T19:12:39.991Z,22.57
2017-11-13T19:17:41.695Z,22.13
2017-11-13T19:22:47.839Z,23.37
2017-11-13T19:27:49.704Z,17.20
2017-11-13T19:32:51.421Z,17.97
2017-11-13T19:37:53.116Z,21.03
2017-11-13T19:42:54.860Z,21.07
2017-11-13T19:47:56.699Z,14.90
2017-11-13T19:52:58.383Z,16.50
2017-11-13T19:58:00.949Z,24.77
2017-11-13T20:03:02.716Z,28.30
2017-11-13T20:08:04.402Z,21.80
2017-11-13T20:13:06.194Z,19.37
2017-11-13T20:18:08.806Z,34.70
2017-11-13T20:23:11.624Z,16.73
2017-11-13T20:28:13.378Z,16.10
2017-11-13T20:33:15.150Z,10.97
2017-11-13T20:38:16.929Z,36.53
2017-11-13T20:43:20.846Z,21.53
2017-11-13T20:48:24.206Z,14.07
2017-11-13T20:53:25.972Z,19.60
2017-11-13T20:58:27.867Z,25.00
2017-11-13T21:03:29.697Z,11.57
2017-11-13T21:08:31.439Z,27.87
2017-11-13T21:13:33.143Z,24.40
2017-11-13T21:18:34.859Z,18.43
2017-11-13T21:23:36.731Z,20.27
2017-11-13T21:28:38.486Z,26.33
2017-11-13T21:33:40.196Z,25.97
2017-11-13T21:38:41.990Z,10.33
2017-11-13T21:43:43.736Z,12.57
2017-11-13T21:48:45.435Z,21.20
2017-11-13T21:53:47.140Z,23.37
2017-11-13T21:58:48.927Z,18.67
2017-11-13T22:03:51.377Z,19.30
2017-11-13T22:08:53.788Z,17.17
2017-11-13T22:13:55.820Z,15.90
2017-11-13T22:18:57.659Z,31.20
2017-11-13T22:24:00.171Z,24.13
2017-11-13T22:29:02.644Z,21.60
2017-11-13T22:34:04.404Z,13.27
2017-11-13T22:39:06.154Z,17.33
2017-11-13T22:44:07.979Z,16.27
2017-11-13T22:49:10.424Z,22.87
2017-11-13T22:54:12.190Z,16.40
2017-11-13T22:59:14.528Z,10.00
2017-11-13T23:04:16.239Z,14.53
2017-11-13T23:09:18.013Z,10.57
2017-11-13T23:14:20.492Z,17.67
2017-11-13T23:19:22.223Z,19.33
2017-11-13T23:24:24.675Z,13.33
2017-11-13T23:29:26.441Z,17.90
2017-11-13T23:34:28.912Z,21.80
2017-11-13T23:39:30.630Z,12.30
2017-11-13T23:44:32.379Z,19.80
2017-11-13T23:49:34.098Z,12.70
2017-11-13T23:54:35.899Z,13.10
2017-11-13T23:59:37.614Z,15.83
